CPX949 Details

Departure: Chicago O'Hare International Airport (KORD)
Arrival: Incheon International Airport (RKSI) at N/A
Route: PMPKN NEATO DLLAN RONIC BAE GRB YQT YYQ 6130N/10000W 6500N/11000W 6700N/12000W 6800N/13000W 6800N/14000W POTAT NCA30 OME R338 ICEEE R338 MARCC R338 NATES R220 NIKLL R220 NYMPH R220 NIPPI R220 NANNO R220 NODAN NIKON IXE Y88 CHINO Y16 SAPRA Y685 CUN G585 GUKDO GUKDO1N
Notes:


Current Weather Information
KORD 191651Z 04003KT 10SM FEW032 SCT045 BKN075 27/19 A3002 RMK AO2 SLP162 T02720194
RKSI 191700Z 02006KT CAVOK 24/18 Q1010 NOSIG